sensor_id;sensor_type;location;lat;lon;timestamp;temperature;humidity
43858;DHT22;29507;51.284;5.758;2023-05-16T00:01:21;9.90;99.90
43858;DHT22;29507;51.284;5.758;2023-05-16T00:03:47;10.00;99.90
43858;DHT22;29507;51.284;5.758;2023-05-16T00:06:13;10.00;99.90
43858;DHT22;29507;51.284;5.758;2023-05-16T00:08:39;9.90;99.90
43858;DHT22;29507;51.284;5.758;2023-05-16T00:11:05;9.80;99.90
43858;DHT22;29507;51.284;5.758;2023-05-16T00:13:31;9.90;99.90
43858;DHT22;29507;51.284;5.758;2023-05-16T00:15:56;9.90;99.90
43858;DHT22;29507;51.284;5.758;2023-05-16T00:18:23;9.80;99.90
43858;DHT22;29507;51.284;5.758;2023-05-16T00:20:51;9.90;99.90
43858;DHT22;29507;51.284;5.758;2023-05-16T00:23:19;10.00;99.90
43858;DHT22;29507;51.284;5.758;2023-05-16T00:25:46;9.90;99.90
43858;DHT22;29507;51.284;5.758;2023-05-16T00:28:12;9.90;99.90
43858;DHT22;29507;51.284;5.758;2023-05-16T00:30:38;9.90;99.90
43858;DHT22;29507;51.284;5.758;2023-05-16T00:33:04;9.90;99.90
43858;DHT22;29507;51.284;5.758;2023-05-16T00:35:30;9.90;99.90
43858;DHT22;29507;51.284;5.758;2023-05-16T00:37:56;9.70;99.90
43858;DHT22;29507;51.284;5.758;2023-05-16T00:40:21;9.70;99.90
43858;DHT22;29507;51.284;5.758;2023-05-16T00:42:47;9.70;99.90
43858;DHT22;29507;51.284;5.758;2023-05-16T00:45:12;9.80;99.90
43858;DHT22;29507;51.284;5.758;2023-05-16T00:47:38;9.70;99.90
43858;DHT22;29507;51.284;5.758;2023-05-16T00:50:04;9.50;99.90
43858;DHT22;29507;51.284;5.758;2023-05-16T00:52:30;9.60;99.90
43858;DHT22;29507;51.284;5.758;2023-05-16T00:54:57;9.70;99.90
43858;DHT22;29507;51.284;5.758;2023-05-16T00:57:23;9.70;99.90
43858;DHT22;29507;51.284;5.758;2023-05-16T00:59:50;9.60;99.90
43858;DHT22;29507;51.284;5.758;2023-05-16T01:02:15;9.60;99.90
43858;DHT22;29507;51.284;5.758;2023-05-16T01:04:42;9.70;99.90
43858;DHT22;29507;51.284;5.758;2023-05-16T01:07:08;9.60;99.90
43858;DHT22;29507;51.284;5.758;2023-05-16T01:09:34;9.50;99.90
43858;DHT22;29507;51.284;5.758;2023-05-16T01:14:46;9.70;99.90
43858;DHT22;29507;51.284;5.758;2023-05-16T01:19:57;9.50;99.90
43858;DHT22;29507;51.284;5.758;2023-05-16T01:23:11;9.30;99.90
43858;DHT22;29507;51.284;5.758;2023-05-16T01:25:45;9.30;99.90
43858;DHT22;29507;51.284;5.758;2023-05-16T01:28:20;9.30;99.90
43858;DHT22;29507;51.284;5.758;2023-05-16T01:30:47;9.40;99.90
43858;DHT22;29507;51.284;5.758;2023-05-16T01:33:15;9.30;99.90
43858;DHT22;29507;51.284;5.758;2023-05-16T01:39:10;9.20;99.90
43858;DHT22;29507;51.284;5.758;2023-05-16T01:41:46;9.20;99.90
43858;DHT22;29507;51.284;5.758;2023-05-16T01:44:39;9.20;99.90
43858;DHT22;29507;51.284;5.758;2023-05-16T01:47:13;9.20;99.90
43858;DHT22;29507;51.284;5.758;2023-05-16T01:50:02;9.20;99.90
43858;DHT22;29507;51.284;5.758;2023-05-16T01:53:08;9.20;99.90
43858;DHT22;29507;51.284;5.758;2023-05-16T01:55:45;9.10;99.90
43858;DHT22;29507;51.284;5.758;2023-05-16T01:58:13;9.00;99.90
43858;DHT22;29507;51.284;5.758;2023-05-16T02:00:39;8.90;99.90
43858;DHT22;29507;51.284;5.758;2023-05-16T02:03:05;8.80;99.90
43858;DHT22;29507;51.284;5.758;2023-05-16T02:05:31;8.70;99.90
43858;DHT22;29507;51.284;5.758;2023-05-16T02:07:58;8.70;99.90
43858;DHT22;29507;51.284;5.758;2023-05-16T02:10:23;8.70;99.90
43858;DHT22;29507;51.284;5.758;2023-05-16T02:12:51;8.60;99.90
43858;DHT22;29507;51.284;5.758;2023-05-16T02:15:17;8.50;99.90
43858;DHT22;29507;51.284;5.758;2023-05-16T02:17:43;8.40;99.90
43858;DHT22;29507;51.284;5.758;2023-05-16T02:20:09;8.30;99.90
43858;DHT22;29507;51.284;5.758;2023-05-16T02:22:36;8.30;99.90
43858;DHT22;29507;51.284;5.758;2023-05-16T02:25:02;8.30;99.90
43858;DHT22;29507;51.284;5.758;2023-05-16T02:27:29;8.20;99.90
43858;DHT22;29507;51.284;5.758;2023-05-16T02:29:54;8.00;99.90
43858;DHT22;29507;51.284;5.758;2023-05-16T02:32:20;7.90;99.90
43858;DHT22;29507;51.284;5.758;2023-05-16T02:34:46;7.80;99.90
43858;DHT22;29507;51.284;5.758;2023-05-16T02:37:11;7.70;99.90
43858;DHT22;29507;51.284;5.758;2023-05-16T02:39:37;7.50;99.90
43858;DHT22;29507;51.284;5.758;2023-05-16T02:42:04;7.50;99.90
43858;DHT22;29507;51.284;5.758;2023-05-16T02:44:29;7.30;99.90
43858;DHT22;29507;51.284;5.758;2023-05-16T02:46:55;7.10;99.90
43858;DHT22;29507;51.284;5.758;2023-05-16T02:49:21;6.90;99.90
43858;DHT22;29507;51.284;5.758;2023-05-16T02:51:46;6.90;99.90
43858;DHT22;29507;51.284;5.758;2023-05-16T02:54:12;6.90;99.90
43858;DHT22;29507;51.284;5.758;2023-05-16T02:56:38;6.90;99.90
43858;DHT22;29507;51.284;5.758;2023-05-16T02:59:03;6.90;99.90
43858;DHT22;29507;51.284;5.758;2023-05-16T03:01:29;6.80;99.90
43858;DHT22;29507;51.284;5.758;2023-05-16T03:03:55;6.60;99.90
43858;DHT22;29507;51.284;5.758;2023-05-16T03:06:21;6.50;99.90
43858;DHT22;29507;51.284;5.758;2023-05-16T03:08:47;6.30;99.90
43858;DHT22;29507;51.284;5.758;2023-05-16T03:11:13;6.20;99.90
43858;DHT22;29507;51.284;5.758;2023-05-16T03:13:39;6.10;99.90
43858;DHT22;29507;51.284;5.758;2023-05-16T03:16:05;6.10;99.90
43858;DHT22;29507;51.284;5.758;2023-05-16T03:18:30;6.10;99.90
43858;DHT22;29507;51.284;5.758;2023-05-16T03:20:56;6.30;99.90
43858;DHT22;29507;51.284;5.758;2023-05-16T03:23:22;6.30;99.90
43858;DHT22;29507;51.284;5.758;2023-05-16T03:25:48;6.40;99.90
43858;DHT22;29507;51.284;5.758;2023-05-16T03:28:15;6.30;99.90
43858;DHT22;29507;51.284;5.758;2023-05-16T03:30:42;6.20;99.90
43858;DHT22;29507;51.284;5.758;2023-05-16T03:33:08;6.20;99.90
43858;DHT22;29507;51.284;5.758;2023-05-16T03:35:34;6.20;99.90
43858;DHT22;29507;51.284;5.758;2023-05-16T03:38:01;6.10;99.90
43858;DHT22;29507;51.284;5.758;2023-05-16T03:40:27;6.20;99.90
43858;DHT22;29507;51.284;5.758;2023-05-16T03:42:52;6.30;99.90
43858;DHT22;29507;51.284;5.758;2023-05-16T03:45:18;6.30;99.90
43858;DHT22;29507;51.284;5.758;2023-05-16T03:47:43;6.40;99.90
43858;DHT22;29507;51.284;5.758;2023-05-16T03:50:09;6.40;99.90
43858;DHT22;29507;51.284;5.758;2023-05-16T03:52:35;6.50;99.90
43858;DHT22;29507;51.284;5.758;2023-05-16T03:55:02;6.50;99.90
43858;DHT22;29507;51.284;5.758;2023-05-16T03:57:32;6.50;99.90
43858;DHT22;29507;51.284;5.758;2023-05-16T03:59:58;6.50;99.90
43858;DHT22;29507;51.284;5.758;2023-05-16T04:02:24;6.60;99.90
43858;DHT22;29507;51.284;5.758;2023-05-16T04:04:49;6.60;99.90
43858;DHT22;29507;51.284;5.758;2023-05-16T04:07:15;6.70;99.90
43858;DHT22;29507;51.284;5.758;2023-05-16T04:09:41;6.70;99.90
43858;DHT22;29507;51.284;5.758;2023-05-16T04:12:07;6.70;99.90
43858;DHT22;29507;51.284;5.758;2023-05-16T04:14:33;6.80;99.90
43858;DHT22;29507;51.284;5.758;2023-05-16T04:16:59;6.70;99.90
43858;DHT22;29507;51.284;5.758;2023-05-16T04:19:25;6.70;99.90
43858;DHT22;29507;51.284;5.758;2023-05-16T04:21:51;6.70;99.90
43858;DHT22;29507;51.284;5.758;2023-05-16T04:24:17;6.70;99.90
43858;DHT22;29507;51.284;5.758;2023-05-16T04:26:43;6.70;99.90
43858;DHT22;29507;51.284;5.758;2023-05-16T04:29:08;6.70;99.90
43858;DHT22;29507;51.284;5.758;2023-05-16T04:31:34;6.70;99.90
43858;DHT22;29507;51.284;5.758;2023-05-16T04:34:01;6.70;99.90
43858;DHT22;29507;51.284;5.758;2023-05-16T04:36:27;6.80;99.90
43858;DHT22;29507;51.284;5.758;2023-05-16T04:38:54;6.80;99.90
43858;DHT22;29507;51.284;5.758;2023-05-16T04:41:20;6.90;99.90
43858;DHT22;29507;51.284;5.758;2023-05-16T04:43:47;7.10;99.90
43858;DHT22;29507;51.284;5.758;2023-05-16T04:46:13;7.30;99.90
43858;DHT22;29507;51.284;5.758;2023-05-16T04:48:40;7.40;99.90
43858;DHT22;29507;51.284;5.758;2023-05-16T04:51:05;7.50;99.90
43858;DHT22;29507;51.284;5.758;2023-05-16T04:53:31;7.60;99.90
43858;DHT22;29507;51.284;5.758;2023-05-16T04:55:57;7.70;99.90
43858;DHT22;29507;51.284;5.758;2023-05-16T04:58:22;7.70;99.90
43858;DHT22;29507;51.284;5.758;2023-05-16T05:00:50;7.70;99.90
43858;DHT22;29507;51.284;5.758;2023-05-16T05:03:15;7.70;99.90
43858;DHT22;29507;51.284;5.758;2023-05-16T05:05:42;7.60;99.90
43858;DHT22;29507;51.284;5.758;2023-05-16T05:08:08;7.60;99.90
43858;DHT22;29507;51.284;5.758;2023-05-16T05:10:34;7.50;99.90
43858;DHT22;29507;51.284;5.758;2023-05-16T05:13:00;7.50;99.90
43858;DHT22;29507;51.284;5.758;2023-05-16T05:15:25;7.40;99.90
43858;DHT22;29507;51.284;5.758;2023-05-16T05:17:51;7.40;99.90
43858;DHT22;29507;51.284;5.758;2023-05-16T05:20:17;7.40;99.90
43858;DHT22;29507;51.284;5.758;2023-05-16T05:22:43;7.40;99.90
43858;DHT22;29507;51.284;5.758;2023-05-16T05:25:08;7.40;99.90
43858;DHT22;29507;51.284;5.758;2023-05-16T05:27:34;7.40;99.90
43858;DHT22;29507;51.284;5.758;2023-05-16T05:30:00;7.40;99.90
43858;DHT22;29507;51.284;5.758;2023-05-16T05:32:25;7.40;99.90
43858;DHT22;29507;51.284;5.758;2023-05-16T05:34:51;7.30;99.90
43858;DHT22;29507;51.284;5.758;2023-05-16T05:37:17;7.30;99.90
43858;DHT22;29507;51.284;5.758;2023-05-16T05:39:42;7.30;99.90
43858;DHT22;29507;51.284;5.758;2023-05-16T05:42:09;7.30;99.90
43858;DHT22;29507;51.284;5.758;2023-05-16T05:44:36;7.20;99.90
43858;DHT22;29507;51.284;5.758;2023-05-16T05:47:02;7.40;99.90
43858;DHT22;29507;51.284;5.758;2023-05-16T05:49:28;7.70;99.90
43858;DHT22;29507;51.284;5.758;2023-05-16T05:51:54;8.80;99.90
43858;DHT22;29507;51.284;5.758;2023-05-16T05:54:20;9.80;99.90
43858;DHT22;29507;51.284;5.758;2023-05-16T05:56:46;10.80;99.90
43858;DHT22;29507;51.284;5.758;2023-05-16T05:59:12;11.10;99.90
43858;DHT22;29507;51.284;5.758;2023-05-16T06:01:38;11.30;99.90
43858;DHT22;29507;51.284;5.758;2023-05-16T06:04:04;11.70;99.90
43858;DHT22;29507;51.284;5.758;2023-05-16T06:06:30;11.70;99.90
43858;DHT22;29507;51.284;5.758;2023-05-16T06:08:56;11.80;99.90
43858;DHT22;29507;51.284;5.758;2023-05-16T06:11:22;12.00;99.90
43858;DHT22;29507;51.284;5.758;2023-05-16T06:13:47;12.20;99.90
43858;DHT22;29507;51.284;5.758;2023-05-16T06:16:13;12.40;99.90
43858;DHT22;29507;51.284;5.758;2023-05-16T06:18:39;12.50;99.90
43858;DHT22;29507;51.284;5.758;2023-05-16T06:21:05;12.50;99.90
43858;DHT22;29507;51.284;5.758;2023-05-16T06:23:31;12.50;99.90
43858;DHT22;29507;51.284;5.758;2023-05-16T06:25:57;12.70;99.90
43858;DHT22;29507;51.284;5.758;2023-05-16T06:28:22;13.20;99.90
43858;DHT22;29507;51.284;5.758;2023-05-16T06:30:48;13.50;99.90
43858;DHT22;29507;51.284;5.758;2023-05-16T06:33:19;13.60;99.90
43858;DHT22;29507;51.284;5.758;2023-05-16T06:35:44;13.80;99.90
43858;DHT22;29507;51.284;5.758;2023-05-16T06:38:10;13.60;99.90
43858;DHT22;29507;51.284;5.758;2023-05-16T06:40:35;13.40;99.90
43858;DHT22;29507;51.284;5.758;2023-05-16T06:43:02;13.30;99.90
43858;DHT22;29507;51.284;5.758;2023-05-16T06:45:27;13.30;99.90
43858;DHT22;29507;51.284;5.758;2023-05-16T06:47:54;13.20;99.90
43858;DHT22;29507;51.284;5.758;2023-05-16T06:50:20;13.30;99.90
43858;DHT22;29507;51.284;5.758;2023-05-16T06:52:45;13.30;99.90
43858;DHT22;29507;51.284;5.758;2023-05-16T06:55:11;13.40;99.90
43858;DHT22;29507;51.284;5.758;2023-05-16T06:57:37;13.20;99.90
43858;DHT22;29507;51.284;5.758;2023-05-16T07:00:03;13.20;99.90
43858;DHT22;29507;51.284;5.758;2023-05-16T07:02:28;13.20;99.90
43858;DHT22;29507;51.284;5.758;2023-05-16T07:04:54;13.20;99.90
43858;DHT22;29507;51.284;5.758;2023-05-16T07:07:20;13.30;99.90
43858;DHT22;29507;51.284;5.758;2023-05-16T07:09:45;13.70;99.90
43858;DHT22;29507;51.284;5.758;2023-05-16T07:12:11;14.50;99.90
43858;DHT22;29507;51.284;5.758;2023-05-16T07:14:37;14.60;98.80
43858;DHT22;29507;51.284;5.758;2023-05-16T07:17:02;14.60;98.00
43858;DHT22;29507;51.284;5.758;2023-05-16T07:19:28;14.80;97.90
43858;DHT22;29507;51.284;5.758;2023-05-16T07:21:54;15.10;97.90
43858;DHT22;29507;51.284;5.758;2023-05-16T07:24:19;15.50;96.20
43858;DHT22;29507;51.284;5.758;2023-05-16T07:26:45;16.00;94.20
43858;DHT22;29507;51.284;5.758;2023-05-16T07:29:10;15.70;93.50
43858;DHT22;29507;51.284;5.758;2023-05-16T07:31:36;15.30;94.70
43858;DHT22;29507;51.284;5.758;2023-05-16T07:34:02;15.10;94.10
43858;DHT22;29507;51.284;5.758;2023-05-16T07:36:27;14.90;93.40
43858;DHT22;29507;51.284;5.758;2023-05-16T07:38:53;15.40;95.00
43858;DHT22;29507;51.284;5.758;2023-05-16T07:41:19;16.00;92.80
43858;DHT22;29507;51.284;5.758;2023-05-16T07:43:44;16.10;92.10
43858;DHT22;29507;51.284;5.758;2023-05-16T07:46:10;15.90;92.00
43858;DHT22;29507;51.284;5.758;2023-05-16T07:48:36;15.70;92.10
43858;DHT22;29507;51.284;5.758;2023-05-16T07:51:01;16.20;92.10
43858;DHT22;29507;51.284;5.758;2023-05-16T07:53:27;16.70;91.50
43858;DHT22;29507;51.284;5.758;2023-05-16T07:55:53;16.60;90.10
43858;DHT22;29507;51.284;5.758;2023-05-16T07:58:18;16.60;90.90
43858;DHT22;29507;51.284;5.758;2023-05-16T08:00:44;16.30;90.60
43858;DHT22;29507;51.284;5.758;2023-05-16T08:03:10;16.10;90.50
43858;DHT22;29507;51.284;5.758;2023-05-16T08:05:35;15.30;91.40
43858;DHT22;29507;51.284;5.758;2023-05-16T08:08:01;14.50;91.80
43858;DHT22;29507;51.284;5.758;2023-05-16T08:10:27;14.00;92.70
43858;DHT22;29507;51.284;5.758;2023-05-16T08:12:52;14.20;93.40
43858;DHT22;29507;51.284;5.758;2023-05-16T08:15:18;15.10;91.70
43858;DHT22;29507;51.284;5.758;2023-05-16T08:17:44;15.40;90.50
43858;DHT22;29507;51.284;5.758;2023-05-16T08:20:10;15.70;91.00
43858;DHT22;29507;51.284;5.758;2023-05-16T08:22:36;15.70;90.60
43858;DHT22;29507;51.284;5.758;2023-05-16T08:25:01;15.70;90.30
43858;DHT22;29507;51.284;5.758;2023-05-16T08:27:27;15.80;89.60
43858;DHT22;29507;51.284;5.758;2023-05-16T08:29:53;16.00;89.00
43858;DHT22;29507;51.284;5.758;2023-05-16T08:32:20;16.30;86.90
43858;DHT22;29507;51.284;5.758;2023-05-16T08:34:46;16.40;86.20
43858;DHT22;29507;51.284;5.758;2023-05-16T08:37:12;16.70;88.60
43858;DHT22;29507;51.284;5.758;2023-05-16T08:39:38;17.30;89.00
43858;DHT22;29507;51.284;5.758;2023-05-16T08:42:04;17.60;85.60
43858;DHT22;29507;51.284;5.758;2023-05-16T08:44:30;16.80;85.90
43858;DHT22;29507;51.284;5.758;2023-05-16T08:46:56;15.80;87.20
43858;DHT22;29507;51.284;5.758;2023-05-16T08:49:22;14.80;90.20
43858;DHT22;29507;51.284;5.758;2023-05-16T08:51:55;15.40;91.20
43858;DHT22;29507;51.284;5.758;2023-05-16T08:54:21;16.40;89.20
43858;DHT22;29507;51.284;5.758;2023-05-16T08:56:47;16.60;86.70
43858;DHT22;29507;51.284;5.758;2023-05-16T08:59:15;17.10;83.00
43858;DHT22;29507;51.284;5.758;2023-05-16T09:01:41;17.70;82.40
43858;DHT22;29507;51.284;5.758;2023-05-16T09:04:07;17.80;80.80
43858;DHT22;29507;51.284;5.758;2023-05-16T09:06:35;18.10;76.80
43858;DHT22;29507;51.284;5.758;2023-05-16T09:09:00;18.30;76.10
43858;DHT22;29507;51.284;5.758;2023-05-16T09:11:27;18.10;73.90
43858;DHT22;29507;51.284;5.758;2023-05-16T09:13:53;17.50;75.20
43858;DHT22;29507;51.284;5.758;2023-05-16T09:16:19;16.90;75.10
43858;DHT22;29507;51.284;5.758;2023-05-16T09:18:52;16.30;76.30
43858;DHT22;29507;51.284;5.758;2023-05-16T09:21:20;16.60;79.10
43858;DHT22;29507;51.284;5.758;2023-05-16T09:23:48;16.40;80.60
43858;DHT22;29507;51.284;5.758;2023-05-16T09:26:14;15.80;82.60
43858;DHT22;29507;51.284;5.758;2023-05-16T09:28:40;15.90;84.60
43858;DHT22;29507;51.284;5.758;2023-05-16T09:31:22;16.70;82.20
43858;DHT22;29507;51.284;5.758;2023-05-16T09:33:57;17.40;79.00
43858;DHT22;29507;51.284;5.758;2023-05-16T09:36:22;16.90;79.70
43858;DHT22;29507;51.284;5.758;2023-05-16T09:38:51;16.40;80.00
43858;DHT22;29507;51.284;5.758;2023-05-16T09:41:17;15.90;81.90
43858;DHT22;29507;51.284;5.758;2023-05-16T09:43:43;15.80;83.60
43858;DHT22;29507;51.284;5.758;2023-05-16T09:46:16;16.40;82.10
43858;DHT22;29507;51.284;5.758;2023-05-16T09:48:46;17.30;80.20
43858;DHT22;29507;51.284;5.758;2023-05-16T09:51:12;18.00;79.10
43858;DHT22;29507;51.284;5.758;2023-05-16T09:53:39;18.50;77.40
43858;DHT22;29507;51.284;5.758;2023-05-16T09:56:16;18.50;77.10
43858;DHT22;29507;51.284;5.758;2023-05-16T09:58:43;17.50;75.90
43858;DHT22;29507;51.284;5.758;2023-05-16T10:01:10;17.20;77.70
43858;DHT22;29507;51.284;5.758;2023-05-16T10:03:40;16.60;79.50
43858;DHT22;29507;51.284;5.758;2023-05-16T10:06:06;16.20;81.20
43858;DHT22;29507;51.284;5.758;2023-05-16T10:08:34;16.60;82.80
43858;DHT22;29507;51.284;5.758;2023-05-16T10:11:01;17.20;81.50
43858;DHT22;29507;51.284;5.758;2023-05-16T10:13:30;17.50;78.00
43858;DHT22;29507;51.284;5.758;2023-05-16T10:15:57;17.80;75.30
43858;DHT22;29507;51.284;5.758;2023-05-16T10:18:30;17.90;76.50
43858;DHT22;29507;51.284;5.758;2023-05-16T10:21:00;18.00;75.80
43858;DHT22;29507;51.284;5.758;2023-05-16T10:23:27;18.10;73.30
43858;DHT22;29507;51.284;5.758;2023-05-16T10:25:54;18.30;74.90
43858;DHT22;29507;51.284;5.758;2023-05-16T10:28:22;18.40;74.70
43858;DHT22;29507;51.284;5.758;2023-05-16T10:30:50;18.80;75.90
43858;DHT22;29507;51.284;5.758;2023-05-16T10:33:17;19.20;74.10
43858;DHT22;29507;51.284;5.758;2023-05-16T10:35:44;19.30;76.40
43858;DHT22;29507;51.284;5.758;2023-05-16T10:38:12;18.70;75.60
43858;DHT22;29507;51.284;5.758;2023-05-16T10:40:39;18.30;74.20
43858;DHT22;29507;51.284;5.758;2023-05-16T10:43:06;18.50;74.40
43858;DHT22;29507;51.284;5.758;2023-05-16T10:45:41;18.80;74.70
43858;DHT22;29507;51.284;5.758;2023-05-16T10:48:07;19.20;77.60
43858;DHT22;29507;51.284;5.758;2023-05-16T10:50:39;19.60;78.50
43858;DHT22;29507;51.284;5.758;2023-05-16T10:56:08;19.90;75.70
43858;DHT22;29507;51.284;5.758;2023-05-16T11:01:24;18.40;75.30
43858;DHT22;29507;51.284;5.758;2023-05-16T11:17:01;16.90;83.70
43858;DHT22;29507;51.284;5.758;2023-05-16T11:19:46;17.90;81.90
43858;DHT22;29507;51.284;5.758;2023-05-16T11:27:30;19.80;78.00
43858;DHT22;29507;51.284;5.758;2023-05-16T11:32:35;18.40;72.50
43858;DHT22;29507;51.284;5.758;2023-05-16T11:35:01;17.70;73.90
43858;DHT22;29507;51.284;5.758;2023-05-16T11:37:27;17.30;74.40
43858;DHT22;29507;51.284;5.758;2023-05-16T11:39:52;17.10;75.20
43858;DHT22;29507;51.284;5.758;2023-05-16T11:42:22;16.90;77.30
43858;DHT22;29507;51.284;5.758;2023-05-16T11:44:48;16.60;77.30
43858;DHT22;29507;51.284;5.758;2023-05-16T11:47:14;16.60;76.70
43858;DHT22;29507;51.284;5.758;2023-05-16T11:49:39;16.50;77.80
43858;DHT22;29507;51.284;5.758;2023-05-16T11:52:07;16.30;78.10
43858;DHT22;29507;51.284;5.758;2023-05-16T11:54:33;16.30;75.40
43858;DHT22;29507;51.284;5.758;2023-05-16T11:56:59;16.00;76.50
43858;DHT22;29507;51.284;5.758;2023-05-16T11:59:26;16.70;78.20
43858;DHT22;29507;51.284;5.758;2023-05-16T12:01:52;17.90;73.10
43858;DHT22;29507;51.284;5.758;2023-05-16T12:04:18;18.60;72.10
43858;DHT22;29507;51.284;5.758;2023-05-16T12:06:57;19.00;70.60
43858;DHT22;29507;51.284;5.758;2023-05-16T12:09:23;20.10;72.50
43858;DHT22;29507;51.284;5.758;2023-05-16T12:11:51;21.10;68.20
43858;DHT22;29507;51.284;5.758;2023-05-16T12:14:17;21.60;69.20
43858;DHT22;29507;51.284;5.758;2023-05-16T12:16:43;20.60;64.70
43858;DHT22;29507;51.284;5.758;2023-05-16T12:19:10;19.70;65.40
43858;DHT22;29507;51.284;5.758;2023-05-16T12:21:37;18.90;67.80
43858;DHT22;29507;51.284;5.758;2023-05-16T12:24:02;18.30;70.90
43858;DHT22;29507;51.284;5.758;2023-05-16T12:26:30;17.80;73.30
43858;DHT22;29507;51.284;5.758;2023-05-16T12:28:58;18.80;72.40
43858;DHT22;29507;51.284;5.758;2023-05-16T12:31:27;19.90;70.80
43858;DHT22;29507;51.284;5.758;2023-05-16T12:33:55;20.40;69.70
43858;DHT22;29507;51.284;5.758;2023-05-16T12:36:21;20.60;69.20
43858;DHT22;29507;51.284;5.758;2023-05-16T12:38:48;21.10;68.30
43858;DHT22;29507;51.284;5.758;2023-05-16T12:41:20;21.50;66.90
43858;DHT22;29507;51.284;5.758;2023-05-16T12:43:47;21.50;66.50
43858;DHT22;29507;51.284;5.758;2023-05-16T12:46:13;20.50;65.70
43858;DHT22;29507;51.284;5.758;2023-05-16T12:48:39;19.40;65.30
43858;DHT22;29507;51.284;5.758;2023-05-16T12:51:16;18.70;68.10
43858;DHT22;29507;51.284;5.758;2023-05-16T12:53:47;18.50;69.70
43858;DHT22;29507;51.284;5.758;2023-05-16T12:56:14;18.90;68.20
43858;DHT22;29507;51.284;5.758;2023-05-16T12:58:40;18.50;69.30
43858;DHT22;29507;51.284;5.758;2023-05-16T13:01:07;18.00;71.60
43858;DHT22;29507;51.284;5.758;2023-05-16T13:03:33;17.50;72.60
43858;DHT22;29507;51.284;5.758;2023-05-16T13:05:59;17.20;73.70
43858;DHT22;29507;51.284;5.758;2023-05-16T13:08:26;16.80;74.80
43858;DHT22;29507;51.284;5.758;2023-05-16T13:10:52;16.40;76.20
43858;DHT22;29507;51.284;5.758;2023-05-16T13:13:17;16.00;77.90
43858;DHT22;29507;51.284;5.758;2023-05-16T13:15:46;15.80;78.10
43858;DHT22;29507;51.284;5.758;2023-05-16T13:18:12;15.80;77.60
43858;DHT22;29507;51.284;5.758;2023-05-16T13:20:39;15.90;77.30
43858;DHT22;29507;51.284;5.758;2023-05-16T13:23:05;16.10;78.20
43858;DHT22;29507;51.284;5.758;2023-05-16T13:25:32;16.70;77.60
43858;DHT22;29507;51.284;5.758;2023-05-16T13:27:58;17.20;77.00
43858;DHT22;29507;51.284;5.758;2023-05-16T13:30:23;17.20;75.60
43858;DHT22;29507;51.284;5.758;2023-05-16T13:32:49;16.90;75.70
43858;DHT22;29507;51.284;5.758;2023-05-16T13:35:17;16.50;76.60
43858;DHT22;29507;51.284;5.758;2023-05-16T13:37:42;16.20;77.00
43858;DHT22;29507;51.284;5.758;2023-05-16T13:40:08;15.90;78.30
43858;DHT22;29507;51.284;5.758;2023-05-16T13:42:35;15.70;78.90
43858;DHT22;29507;51.284;5.758;2023-05-16T13:45:02;15.60;79.30
43858;DHT22;29507;51.284;5.758;2023-05-16T13:47:27;15.60;79.20
43858;DHT22;29507;51.284;5.758;2023-05-16T13:49:53;15.70;80.00
43858;DHT22;29507;51.284;5.758;2023-05-16T13:52:19;15.80;78.30
43858;DHT22;29507;51.284;5.758;2023-05-16T13:54:45;15.80;78.30
43858;DHT22;29507;51.284;5.758;2023-05-16T13:57:11;15.70;79.00
43858;DHT22;29507;51.284;5.758;2023-05-16T13:59:36;15.60;80.40
43858;DHT22;29507;51.284;5.758;2023-05-16T14:02:02;15.60;79.40
43858;DHT22;29507;51.284;5.758;2023-05-16T14:04:28;15.60;81.10
43858;DHT22;29507;51.284;5.758;2023-05-16T14:06:53;15.80;80.70
43858;DHT22;29507;51.284;5.758;2023-05-16T14:09:20;15.90;80.60
43858;DHT22;29507;51.284;5.758;2023-05-16T14:11:46;16.00;80.10
43858;DHT22;29507;51.284;5.758;2023-05-16T14:14:11;16.10;81.90
43858;DHT22;29507;51.284;5.758;2023-05-16T14:16:37;16.10;81.60
43858;DHT22;29507;51.284;5.758;2023-05-16T14:19:03;16.10;81.70
43858;DHT22;29507;51.284;5.758;2023-05-16T14:21:28;16.10;80.50
43858;DHT22;29507;51.284;5.758;2023-05-16T14:23:54;16.10;81.00
43858;DHT22;29507;51.284;5.758;2023-05-16T14:26:19;16.20;80.20
43858;DHT22;29507;51.284;5.758;2023-05-16T14:28:50;16.20;78.80
43858;DHT22;29507;51.284;5.758;2023-05-16T14:31:15;16.20;81.40
43858;DHT22;29507;51.284;5.758;2023-05-16T14:33:41;16.30;80.40
43858;DHT22;29507;51.284;5.758;2023-05-16T14:36:08;16.40;80.00
43858;DHT22;29507;51.284;5.758;2023-05-16T14:38:34;16.50;78.20
43858;DHT22;29507;51.284;5.758;2023-05-16T14:41:00;16.70;77.50
43858;DHT22;29507;51.284;5.758;2023-05-16T14:43:25;16.90;77.00
43858;DHT22;29507;51.284;5.758;2023-05-16T14:45:51;17.10;76.10
43858;DHT22;29507;51.284;5.758;2023-05-16T14:48:17;17.00;76.00
43858;DHT22;29507;51.284;5.758;2023-05-16T14:50:42;16.60;75.90
43858;DHT22;29507;51.284;5.758;2023-05-16T14:53:08;16.30;77.30
43858;DHT22;29507;51.284;5.758;2023-05-16T14:55:33;16.00;78.50
43858;DHT22;29507;51.284;5.758;2023-05-16T14:57:59;15.80;81.40
43858;DHT22;29507;51.284;5.758;2023-05-16T15:00:25;15.60;80.70
43858;DHT22;29507;51.284;5.758;2023-05-16T15:02:51;15.50;80.80
43858;DHT22;29507;51.284;5.758;2023-05-16T15:05:17;15.50;81.70
43858;DHT22;29507;51.284;5.758;2023-05-16T15:07:43;15.50;80.70
43858;DHT22;29507;51.284;5.758;2023-05-16T15:10:09;15.50;81.20
43858;DHT22;29507;51.284;5.758;2023-05-16T15:12:35;15.50;81.50
43858;DHT22;29507;51.284;5.758;2023-05-16T15:15:01;15.50;81.30
43858;DHT22;29507;51.284;5.758;2023-05-16T15:17:27;15.40;82.30
43858;DHT22;29507;51.284;5.758;2023-05-16T15:19:52;15.40;81.00
43858;DHT22;29507;51.284;5.758;2023-05-16T15:22:19;15.30;79.50
43858;DHT22;29507;51.284;5.758;2023-05-16T15:24:45;15.20;81.00
43858;DHT22;29507;51.284;5.758;2023-05-16T15:27:10;15.10;82.50
43858;DHT22;29507;51.284;5.758;2023-05-16T15:29:36;15.00;82.00
43858;DHT22;29507;51.284;5.758;2023-05-16T15:32:05;14.90;82.00
43858;DHT22;29507;51.284;5.758;2023-05-16T15:34:32;14.80;83.10
43858;DHT22;29507;51.284;5.758;2023-05-16T15:36:59;14.60;83.60
43858;DHT22;29507;51.284;5.758;2023-05-16T15:39:24;14.50;83.60
43858;DHT22;29507;51.284;5.758;2023-05-16T15:41:51;14.30;85.30
43858;DHT22;29507;51.284;5.758;2023-05-16T15:44:16;14.30;83.90
43858;DHT22;29507;51.284;5.758;2023-05-16T15:46:42;14.40;84.10
43858;DHT22;29507;51.284;5.758;2023-05-16T15:49:07;14.50;85.30
43858;DHT22;29507;51.284;5.758;2023-05-16T15:51:34;14.80;85.90
43858;DHT22;29507;51.284;5.758;2023-05-16T15:54:00;15.10;84.80
43858;DHT22;29507;51.284;5.758;2023-05-16T15:56:26;15.20;84.00
43858;DHT22;29507;51.284;5.758;2023-05-16T15:58:54;15.30;83.10
43858;DHT22;29507;51.284;5.758;2023-05-16T16:01:20;15.40;82.80
43858;DHT22;29507;51.284;5.758;2023-05-16T16:03:45;15.30;83.20
43858;DHT22;29507;51.284;5.758;2023-05-16T16:06:11;15.20;84.10
43858;DHT22;29507;51.284;5.758;2023-05-16T16:08:37;15.10;84.70
43858;DHT22;29507;51.284;5.758;2023-05-16T16:11:02;15.10;84.00